Time;durP1;ratioP1;P1;durP2;ratioP2;P2;SDS_P1;SDS_P2;PMS_P1;PMS_P2;Temp;Humidity;BMP_temperature;BMP_pressure;BME280_temperature;BME280_humidity;BME280_pressure;Samples;Min_cycle;Max_cycle;Signal;HPM_P1;HPM_P2
2023/11/11 00:00:19;;;;;;;;;;;;;;;11.02;56.37;99208.97;4952561;27;98377;-64
2023/11/11 00:02:44;;;;;;;;;;;;;;;11.01;56.49;99208.19;4946298;27;99408;-69
2023/11/11 00:05:10;;;;;;;;;;;;;;;10.99;56.35;99210.38;4948708;27;118539;-69
2023/11/11 00:07:36;;;;;;;;;;;;;;;10.99;56.60;99214.97;4939336;27;110697;-64
2023/11/11 00:10:03;;;;;;;;;;;;;;;10.97;56.75;99204.50;4950585;27;98146;-64
2023/11/11 00:12:29;;;;;;;;;;;;;;;10.95;56.48;99201.28;4948240;27;98070;-69
2023/11/11 00:14:55;;;;;;;;;;;;;;;10.95;56.55;99198.59;4957413;27;99399;-64
2023/11/11 00:17:21;;;;;;;;;;;;;;;10.94;56.69;99204.28;4938553;27;108115;-64
2023/11/11 00:19:47;;;;;;;;;;;;;;;10.92;56.53;99204.56;4964239;27;98304;-69
2023/11/11 00:22:13;;;;;;;;;;;;;;;10.92;56.41;99203.78;4947799;27;99409;-64
2023/11/11 00:24:39;;;;;;;;;;;;;;;10.89;56.43;99207.88;4958854;27;99461;-69
2023/11/11 00:27:06;;;;;;;;;;;;;;;10.90;56.48;99206.00;4944372;27;121939;-69
2023/11/11 00:29:32;;;;;;;;;;;;;;;10.88;56.35;99206.28;4950801;27;98168;-69
2023/11/11 00:31:58;;;;;;;;;;;;;;;10.87;56.52;99210.06;4943226;27;126385;-69
2023/11/11 00:34:25;;;;;;;;;;;;;;;10.86;56.69;99208.47;4961554;27;98539;-64
2023/11/11 00:36:51;;;;;;;;;;;;;;;10.85;56.48;99212.28;4946301;27;98048;-64
2023/11/11 00:39:20;;;;;;;;;;;;;;;10.85;56.69;99222.28;4949088;27;98187;-64
2023/11/11 00:41:46;;;;;;;;;;;;;;;10.84;56.42;99212.56;4959555;27;98362;-64
2023/11/11 00:44:12;;;;;;;;;;;;;;;10.82;56.38;99219.06;4948896;27;103197;-64
2023/11/11 00:46:39;;;;;;;;;;;;;;;10.80;56.74;99215.06;4959113;27;98188;-64
2023/11/11 00:49:06;;;;;;;;;;;;;;;10.79;56.41;99214.25;4946291;27;98514;-69
2023/11/11 00:51:33;;;;;;;;;;;;;;;10.78;56.81;99209.97;4948333;27;98132;-69
2023/11/11 00:53:59;;;;;;;;;;;;;;;10.78;56.40;99209.19;4945369;27;97980;-64
2023/11/11 00:56:25;;;;;;;;;;;;;;;10.78;56.54;99206.47;4955151;27;99333;-69
2023/11/11 00:58:51;;;;;;;;;;;;;;;10.77;56.37;99196.81;4960387;27;98481;-70
2023/11/11 01:01:17;;;;;;;;;;;;;;;10.77;56.31;99202.19;4938613;27;98221;-69
2023/11/11 01:03:43;;;;;;;;;;;;;;;10.75;56.27;99194.38;4945667;27;116038;-69
2023/11/11 01:06:10;;;;;;;;;;;;;;;10.75;56.67;99199.00;4966420;27;125559;-70
2023/11/11 01:08:36;;;;;;;;;;;;;;;10.73;56.58;99196.59;4952682;27;98356;-64
2023/11/11 01:11:03;;;;;;;;;;;;;;;10.73;56.59;99202.00;4945215;27;105274;-69
2023/11/11 01:13:29;;;;;;;;;;;;;;;10.73;56.41;99198.50;4943707;27;98519;-69
2023/11/11 01:15:59;;;;;;;;;;;;;;;10.71;56.67;99192.59;4973925;27;98959;-69
2023/11/11 01:18:29;;;;;;;;;;;;;;;10.72;56.08;99196.88;4948897;27;98347;-64
2023/11/11 01:20:58;;;;;;;;;;;;;;;10.71;56.60;99198.00;4948021;27;99648;-69
2023/11/11 01:23:24;;;;;;;;;;;;;;;10.71;56.61;99196.09;4961722;27;98253;-69
2023/11/11 01:25:50;;;;;;;;;;;;;;;10.70;56.69;99197.19;4964109;27;104445;-69
2023/11/11 01:28:16;;;;;;;;;;;;;;;10.68;56.27;99199.38;4945619;27;103295;-64
2023/11/11 01:30:42;;;;;;;;;;;;;;;10.68;56.34;99195.88;4968492;27;99418;-64
2023/11/11 01:33:09;;;;;;;;;;;;;;;10.67;56.29;99197.78;4944302;27;98487;-69
2023/11/11 01:35:35;;;;;;;;;;;;;;;10.67;56.47;99197.78;4950869;27;100213;-64
2023/11/11 01:38:01;;;;;;;;;;;;;;;10.67;56.28;99191.59;4946304;27;111634;-69
2023/11/11 01:40:27;;;;;;;;;;;;;;;10.64;56.60;99187.59;4950301;27;98318;-69
2023/11/11 01:42:53;;;;;;;;;;;;;;;10.65;56.65;99188.38;4939461;27;115781;-64
2023/11/11 01:45:19;;;;;;;;;;;;;;;10.65;56.51;99177.59;4944999;27;101763;-64
2023/11/11 01:47:45;;;;;;;;;;;;;;;10.64;56.56;99182.19;4961640;27;98388;-69
2023/11/11 01:50:11;;;;;;;;;;;;;;;10.63;56.49;99177.91;4945032;27;100464;-69
2023/11/11 01:52:38;;;;;;;;;;;;;;;10.64;56.47;99176.00;4951033;27;98771;-64
2023/11/11 01:55:04;;;;;;;;;;;;;;;10.63;56.67;99172.53;4969440;27;98415;-69
2023/11/11 01:57:30;;;;;;;;;;;;;;;10.62;56.57;99178.22;4944354;27;97971;-69
2023/11/11 01:59:58;;;;;;;;;;;;;;;10.62;56.47;99170.94;4961260;27;98173;-64
2023/11/11 02:02:24;;;;;;;;;;;;;;;10.62;56.41;99164.75;4950319;27;98352;-64
2023/11/11 02:04:50;;;;;;;;;;;;;;;10.62;56.33;99162.84;4948613;27;98168;-64
2023/11/11 02:07:16;;;;;;;;;;;;;;;10.63;56.66;99167.13;4949405;27;100485;-63
2023/11/11 02:09:43;;;;;;;;;;;;;;;10.63;56.39;99166.34;4982281;27;98100;-67
2023/11/11 02:12:09;;;;;;;;;;;;;;;10.63;56.45;99159.06;4951290;27;99141;-69
2023/11/11 02:14:37;;;;;;;;;;;;;;;10.62;56.53;99153.97;4956771;27;126162;-69
2023/11/11 02:17:03;;;;;;;;;;;;;;;10.63;56.39;99152.88;4960804;27;98630;-69
2023/11/11 02:19:29;;;;;;;;;;;;;;;10.64;56.41;99152.56;4960636;27;98893;-70
2023/11/11 02:21:55;;;;;;;;;;;;;;;10.65;56.64;99150.66;4944493;27;98794;-69
2023/11/11 02:24:21;;;;;;;;;;;;;;;10.63;56.54;99153.66;4943269;27;129020;-64
2023/11/11 02:26:48;;;;;;;;;;;;;;;10.64;56.23;99154.47;4970497;27;97946;-64
2023/11/11 02:29:14;;;;;;;;;;;;;;;10.65;56.36;99158.75;4952664;27;99916;-64
2023/11/11 02:31:39;;;;;;;;;;;;;;;10.66;56.20;99161.16;4958848;27;98132;-69
2023/11/11 02:34:05;;;;;;;;;;;;;;;10.65;56.44;99151.47;4976848;27;108244;-69
2023/11/11 02:36:32;;;;;;;;;;;;;;;10.66;56.41;99150.38;4945527;27;99490;-69
2023/11/11 02:38:58;;;;;;;;;;;;;;;10.66;56.66;99141.50;4981267;27;98025;-69
2023/11/11 02:41:24;;;;;;;;;;;;;;;10.66;56.55;99150.38;4940778;27;98190;-64
2023/11/11 02:43:50;;;;;;;;;;;;;;;10.68;56.21;99141.97;4940352;27;100975;-70
2023/11/11 02:46:17;;;;;;;;;;;;;;;10.68;56.25;99141.97;4947944;27;113923;-69
2023/11/11 02:48:43;;;;;;;;;;;;;;;10.68;56.57;99144.69;4964296;27;98883;-69
2023/11/11 02:51:09;;;;;;;;;;;;;;;10.69;56.52;99140.88;4961922;27;98050;-70
2023/11/11 02:53:35;;;;;;;;;;;;;;;10.68;56.36;99141.97;4946695;27;97916;-64
2023/11/11 02:56:01;;;;;;;;;;;;;;;10.68;56.36;99140.06;4945338;27;98651;-70
2023/11/11 02:58:27;;;;;;;;;;;;;;;10.67;56.38;99133.09;4944480;27;99726;-70
2023/11/11 03:00:54;;;;;;;;;;;;;;;10.67;56.09;99125.00;4968861;27;98021;-69
2023/11/11 03:03:21;;;;;;;;;;;;;;;10.68;56.47;99131.19;4972613;27;98290;-70
2023/11/11 03:05:47;;;;;;;;;;;;;;;10.67;56.18;99125.00;4969981;27;98450;-70
2023/11/11 03:08:13;;;;;;;;;;;;;;;10.68;56.05;99126.59;4959312;27;116284;-64
2023/11/11 03:10:39;;;;;;;;;;;;;;;10.68;56.37;99129.31;4961805;27;97975;-64
2023/11/11 03:13:06;;;;;;;;;;;;;;;10.69;56.42;99124.72;4957966;27;99287;-70
2023/11/11 03:15:32;;;;;;;;;;;;;;;10.69;56.12;99124.72;4960782;27;98422;-64
2023/11/11 03:18:00;;;;;;;;;;;;;;;10.69;56.40;99119.31;4956054;27;98858;-65
2023/11/11 03:20:26;;;;;;;;;;;;;;;10.68;56.49;99115.81;4961915;27;99542;-70
2023/11/11 03:22:54;;;;;;;;;;;;;;;10.67;56.32;99118.84;4947209;27;117922;-70
2023/11/11 03:25:19;;;;;;;;;;;;;;;10.65;56.49;99113.75;4943470;27;98095;-70
2023/11/11 03:27:45;;;;;;;;;;;;;;;10.63;56.26;99112.44;4947551;27;99438;-70
2023/11/11 03:30:12;;;;;;;;;;;;;;;10.60;56.21;99118.44;4946727;27;98199;-64
2023/11/11 03:32:38;;;;;;;;;;;;;;;10.57;56.52;99114.44;4955604;27;98310;-70
2023/11/11 03:35:05;;;;;;;;;;;;;;;10.55;56.37;99116.63;4946622;27;98700;-70
2023/11/11 03:37:31;;;;;;;;;;;;;;;10.53;56.46;99108.03;4976099;27;98483;-70
2023/11/11 03:39:57;;;;;;;;;;;;;;;10.50;56.50;99108.66;4948614;27;100438;-65
2023/11/11 03:42:23;;;;;;;;;;;;;;;10.48;56.09;99100.84;4953554;27;100937;-64
2023/11/11 03:44:49;;;;;;;;;;;;;;;10.46;56.09;99105.75;4944130;27;98245;-65
2023/11/11 03:47:15;;;;;;;;;;;;;;;10.45;56.26;99106.88;4943571;27;98672;-64
2023/11/11 03:49:41;;;;;;;;;;;;;;;10.42;56.44;99110.16;4939604;27;98189;-70
2023/11/11 03:52:09;;;;;;;;;;;;;;;10.42;55.97;99112.06;4947441;27;115749;-65
2023/11/11 03:54:35;;;;;;;;;;;;;;;10.40;56.46;99111.53;4946606;27;97975;-69
2023/11/11 03:57:01;;;;;;;;;;;;;;;10.38;56.75;99111.84;4947021;27;98512;-69
2023/11/11 03:59:27;;;;;;;;;;;;;;;10.36;56.52;99111.34;4956475;27;104272;-70
2023/11/11 04:01:53;;;;;;;;;;;;;;;10.34;56.42;99108.16;4941006;27;115175;-70
2023/11/11 04:04:20;;;;;;;;;;;;;;;10.33;56.39;99106.53;4957484;27;99568;-70
2023/11/11 04:06:46;;;;;;;;;;;;;;;10.32;56.67;99104.94;4957097;27;98155;-65
2023/11/11 04:09:13;;;;;;;;;;;;;;;10.30;56.56;99105.25;4957321;27;97906;-64
2023/11/11 04:11:38;;;;;;;;;;;;;;;10.29;56.48;99100.94;4959224;27;100258;-69
2023/11/11 04:14:05;;;;;;;;;;;;;;;10.28;56.20;99109.34;4943577;27;123015;-65
2023/11/11 04:16:31;;;;;;;;;;;;;;;10.27;56.16;99105.06;4964148;27;100029;-65
2023/11/11 04:18:57;;;;;;;;;;;;;;;10.26;56.70;99103.47;4991019;27;98101;-70
2023/11/11 04:21:23;;;;;;;;;;;;;;;10.24;56.27;99109.09;4945597;27;98279;-70
2023/11/11 04:23:49;;;;;;;;;;;;;;;10.23;56.57;99110.19;4943457;27;105251;-65
2023/11/11 04:26:15;;;;;;;;;;;;;;;10.23;56.39;99109.41;4952399;27;98406;-65
2023/11/11 04:28:44;;;;;;;;;;;;;;;10.21;56.56;99112.38;4946534;27;98524;-65
2023/11/11 04:31:12;;;;;;;;;;;;;;;10.18;56.16;99104.91;4950696;27;98381;-64
2023/11/11 04:33:38;;;;;;;;;;;;;;;10.19;56.69;99114.59;4942526;27;97791;-65
2023/11/11 04:36:04;;;;;;;;;;;;;;;10.18;56.66;99104.09;4942701;27;98179;-65
2023/11/11 04:38:30;;;;;;;;;;;;;;;10.16;55.94;99104.41;4955194;27;98714;-70
2023/11/11 04:40:57;;;;;;;;;;;;;;;10.16;56.32;99098.22;4958318;27;98659;-69
2023/11/11 04:43:22;;;;;;;;;;;;;;;10.16;56.04;99103.59;4950470;27;98158;-70
2023/11/11 04:45:49;;;;;;;;;;;;;;;10.14;56.71;99112.00;4967889;27;127308;-64
2023/11/11 04:48:14;;;;;;;;;;;;;;;10.13;56.08;99107.69;4958276;27;98103;-70
2023/11/11 04:50:41;;;;;;;;;;;;;;;10.11;56.44;99099.13;4952311;27;128542;-70
2023/11/11 04:53:07;;;;;;;;;;;;;;;10.11;56.73;99112.56;4942654;27;99606;-70
2023/11/11 04:55:33;;;;;;;;;;;;;;;10.11;56.48;99111.78;4947604;27;98428;-64
2023/11/11 04:58:00;;;;;;;;;;;;;;;10.09;56.52;99106.69;4958218;27;99214;-70
2023/11/11 05:00:26;;;;;;;;;;;;;;;10.10;56.66;99108.28;4955269;27;98089;-69
2023/11/11 05:02:52;;;;;;;;;;;;;;;10.09;56.13;99110.16;4951230;27;97965;-64
2023/11/11 05:05:20;;;;;;;;;;;;;;;10.09;56.06;99112.06;4948318;27;98614;-70
2023/11/11 05:07:46;;;;;;;;;;;;;;;10.09;56.26;99112.06;4962324;27;97968;-64
2023/11/11 05:10:12;;;;;;;;;;;;;;;10.09;56.43;99112.06;4952938;27;98236;-64
2023/11/11 05:12:38;;;;;;;;;;;;;;;10.09;56.28;99114.75;4958388;27;98117;-64
2023/11/11 05:15:13;;;;;;;;;;;;;;;10.10;56.67;99105.59;4962022;27;100041;-64
2023/11/11 05:17:43;;;;;;;;;;;;;;;10.09;56.66;99109.38;4949540;27;98626;-69
2023/11/11 05:20:10;;;;;;;;;;;;;;;10.10;56.37;99116.38;4954371;27;98169;-64
2023/11/11 05:22:37;;;;;;;;;;;;;;;10.10;56.35;99102.91;4950987;27;98106;-64
2023/11/11 05:25:04;;;;;;;;;;;;;;;10.11;56.64;99103.72;4972852;27;98669;-70
2023/11/11 05:27:33;;;;;;;;;;;;;;;10.12;55.99;99102.59;4962939;27;98047;-70
2023/11/11 05:30:00;;;;;;;;;;;;;;;10.12;56.72;99110.69;4951548;27;100438;-64
2023/11/11 05:32:26;;;;;;;;;;;;;;;10.13;56.40;99101.50;4949117;27;97800;-70
2023/11/11 05:34:52;;;;;;;;;;;;;;;10.12;56.59;99103.41;4965095;27;98093;-69
2023/11/11 05:37:19;;;;;;;;;;;;;;;10.13;56.26;99104.19;4948211;27;98897;-65
2023/11/11 05:39:45;;;;;;;;;;;;;;;10.12;56.36;99108.00;4960458;27;99174;-69
2023/11/11 05:42:11;;;;;;;;;;;;;;;10.13;56.13;99114.97;4945514;27;98151;-65
2023/11/11 05:44:41;;;;;;;;;;;;;;;10.11;56.77;99120.66;4953581;27;98506;-64
2023/11/11 05:47:08;;;;;;;;;;;;;;;10.11;56.60;99111.78;4971074;27;98291;-65
2023/11/11 05:49:34;;;;;;;;;;;;;;;10.09;56.42;99117.44;4964014;27;98099;-64
2023/11/11 05:52:01;;;;;;;;;;;;;;;10.09;56.06;99122.84;4947203;27;102227;-70
2023/11/11 05:54:27;;;;;;;;;;;;;;;10.09;56.26;99128.22;4953542;27;99596;-64
2023/11/11 05:56:54;;;;;;;;;;;;;;;10.07;56.20;99120.44;4943871;27;98263;-69
2023/11/11 05:59:20;;;;;;;;;;;;;;;10.07;56.35;99127.72;4945854;27;111791;-64
2023/11/11 06:01:46;;;;;;;;;;;;;;;10.06;56.00;99136.88;4952728;27;98077;-69
2023/11/11 06:04:12;;;;;;;;;;;;;;;10.06;56.34;99142.25;4958922;27;98208;-64
2023/11/11 06:06:42;;;;;;;;;;;;;;;10.02;56.16;99135.88;4961651;27;98456;-64
2023/11/11 06:09:14;;;;;;;;;;;;;;;10.03;56.33;99140.97;4950105;27;99304;-64
2023/11/11 06:11:46;;;;;;;;;;;;;;;10.08;56.61;99148.97;4977616;27;99436;-64
2023/11/11 06:14:15;;;;;;;;;;;;;;;10.15;56.22;99145.09;4961623;27;121643;-64
2023/11/11 06:16:44;;;;;;;;;;;;;;;10.21;56.24;99146.59;4963754;27;98112;-64
2023/11/11 06:19:10;;;;;;;;;;;;;;;10.25;56.21;99143.03;4949160;27;98376;-69
2023/11/11 06:21:36;;;;;;;;;;;;;;;10.30;56.23;99145.66;4959986;27;98593;-69
2023/11/11 06:24:04;;;;;;;;;;;;;;;10.32;56.28;99139.97;4959510;27;128357;-69
2023/11/11 06:26:30;;;;;;;;;;;;;;;10.36;56.53;99151.75;4960973;27;100024;-69
2023/11/11 06:28:56;;;;;;;;;;;;;;;10.39;56.12;99147.66;4945632;27;98897;-69
2023/11/11 06:31:26;;;;;;;;;;;;;;;10.42;56.72;99149.75;4948495;27;99826;-64
2023/11/11 06:33:52;;;;;;;;;;;;;;;10.44;56.52;99155.63;4944161;27;98153;-69
2023/11/11 06:36:18;;;;;;;;;;;;;;;10.46;55.94;99166.94;4960697;27;98903;-64
2023/11/11 06:38:44;;;;;;;;;;;;;;;10.47;56.12;99161.22;4958518;27;117441;-69
2023/11/11 06:41:11;;;;;;;;;;;;;;;10.50;56.68;99160.66;4942694;27;98030;-64
2023/11/11 06:43:37;;;;;;;;;;;;;;;10.52;56.00;99165.72;4942116;27;98117;-64
2023/11/11 06:46:06;;;;;;;;;;;;;;;10.51;56.24;99162.22;4939379;27;99747;-69
2023/11/11 06:48:33;;;;;;;;;;;;;;;10.54;56.24;99158.16;4956920;27;98578;-69
2023/11/11 06:50:59;;;;;;;;;;;;;;;10.56;56.07;99161.34;4963471;27;98803;-69
2023/11/11 06:53:25;;;;;;;;;;;;;;;10.61;56.07;99165.81;4949991;27;113360;-64
2023/11/11 06:55:51;;;;;;;;;;;;;;;10.62;56.36;99168.25;4959057;27;98147;-64
2023/11/11 06:58:17;;;;;;;;;;;;;;;10.65;55.93;99169.53;4945788;27;100066;-69
2023/11/11 07:00:44;;;;;;;;;;;;;;;10.66;55.86;99163.84;4995136;27;99098;-64
2023/11/11 07:03:10;;;;;;;;;;;;;;;10.68;56.23;99169.72;4944018;27;98253;-69
2023/11/11 07:05:36;;;;;;;;;;;;;;;10.66;56.27;99165.75;4946326;27;98612;-69
2023/11/11 07:08:02;;;;;;;;;;;;;;;10.66;56.40;99168.44;4945693;27;98620;-70
2023/11/11 07:10:33;;;;;;;;;;;;;;;10.66;56.17;99166.53;4961929;27;98205;-69
2023/11/11 07:13:00;;;;;;;;;;;;;;;10.70;56.10;99172.94;4949805;27;98695;-64
2023/11/11 07:15:27;;;;;;;;;;;;;;;10.74;55.97;99168.53;4959264;27;98733;-69
2023/11/11 07:17:53;;;;;;;;;;;;;;;10.78;56.03;99174.13;4956978;27;98884;-69
2023/11/11 07:20:21;;;;;;;;;;;;;;;10.79;56.08;99170.34;4941343;27;98011;-69
2023/11/11 07:22:48;;;;;;;;;;;;;;;10.84;56.17;99175.63;4954582;27;98557;-64
2023/11/11 07:25:15;;;;;;;;;;;;;;;10.87;55.91;99175.03;4953401;27;100561;-64
2023/11/11 07:27:41;;;;;;;;;;;;;;;10.90;56.21;99174.44;4941506;27;100839;-64
2023/11/11 07:30:10;;;;;;;;;;;;;;;10.95;56.13;99173.53;4956807;27;98446;-64
2023/11/11 07:32:37;;;;;;;;;;;;;;;11.00;55.91;99179.63;4944790;27;98204;-69
2023/11/11 07:35:04;;;;;;;;;;;;;;;11.06;56.04;99188.41;4947245;27;98002;-64
2023/11/11 07:37:30;;;;;;;;;;;;;;;11.09;55.75;99185.09;4940929;27;98115;-64
2023/11/11 07:39:56;;;;;;;;;;;;;;;11.12;55.93;99189.91;4942227;27;115468;-64
2023/11/11 07:42:22;;;;;;;;;;;;;;;11.15;55.86;99188.47;4958798;27;98997;-69
2023/11/11 07:44:48;;;;;;;;;;;;;;;11.17;55.84;99184.41;4945946;27;98255;-64
2023/11/11 07:47:15;;;;;;;;;;;;;;;11.19;55.95;99190.28;4959256;27;99019;-64
2023/11/11 07:49:43;;;;;;;;;;;;;;;11.21;56.02;99190.78;4947768;27;98754;-69
2023/11/11 07:52:09;;;;;;;;;;;;;;;11.22;55.89;99195.06;4962875;27;98464;-64
2023/11/11 07:54:36;;;;;;;;;;;;;;;11.25;55.77;99190.97;4957111;27;98140;-64
2023/11/11 07:57:03;;;;;;;;;;;;;;;11.29;55.89;99187.38;4956020;27;99149;-69
2023/11/11 07:59:29;;;;;;;;;;;;;;;11.33;55.90;99189.47;4956908;27;99395;-69
2023/11/11 08:01:56;;;;;;;;;;;;;;;11.34;55.89;99189.16;4940944;27;113255;-69
2023/11/11 08:04:22;;;;;;;;;;;;;;;11.36;55.77;99189.66;4959931;27;98237;-66
2023/11/11 08:06:48;;;;;;;;;;;;;;;11.39;55.82;99190.94;4946975;27;98187;-64
2023/11/11 08:09:16;;;;;;;;;;;;;;;11.41;55.86;99196.84;4941529;27;100133;-64
2023/11/11 08:11:43;;;;;;;;;;;;;;;11.45;55.84;99205.94;4940719;27;98205;-64
2023/11/11 08:14:10;;;;;;;;;;;;;;;11.49;56.03;99207.72;4956129;27;98346;-69
2023/11/11 08:16:36;;;;;;;;;;;;;;;11.53;55.93;99211.41;4944475;27;98484;-64
2023/11/11 08:19:04;;;;;;;;;;;;;;;11.60;55.71;99204.81;4949977;27;98287;-65
2023/11/11 08:21:32;;;;;;;;;;;;;;;11.64;55.93;99209.28;4945165;27;98958;-69
2023/11/11 08:24:02;;;;;;;;;;;;;;;11.70;55.75;99205.34;4946772;27;98464;-64
2023/11/11 08:26:28;;;;;;;;;;;;;;;11.76;55.73;99209.53;4955804;27;98143;-64
2023/11/11 08:28:54;;;;;;;;;;;;;;;11.80;55.63;99212.44;4937425;27;98603;-69
2023/11/11 08:31:21;;;;;;;;;;;;;;;11.83;55.82;99216.41;4940498;27;97963;-64
2023/11/11 08:33:47;;;;;;;;;;;;;;;11.84;55.61;99212.66;4938404;27;99513;-64
2023/11/11 08:36:13;;;;;;;;;;;;;;;11.84;55.66;99213.44;4957399;27;110328;-69
2023/11/11 08:38:39;;;;;;;;;;;;;;;11.86;55.83;99219.34;4950977;27;128044;-69
2023/11/11 08:41:05;;;;;;;;;;;;;;;11.90;55.60;99225.72;4938128;27;98258;-69
2023/11/11 08:43:31;;;;;;;;;;;;;;;11.96;55.75;99218.31;4941102;27;98588;-64
2023/11/11 08:45:57;;;;;;;;;;;;;;;12.00;55.47;99216.59;4974602;27;98735;-69
2023/11/11 08:48:23;;;;;;;;;;;;;;;12.07;55.59;99222.38;4959454;27;98234;-64
2023/11/11 08:50:49;;;;;;;;;;;;;;;12.10;55.70;99212.84;4946315;27;98091;-69
2023/11/11 08:53:16;;;;;;;;;;;;;;;12.11;55.63;99214.44;4940363;27;117443;-69
2023/11/11 08:55:41;;;;;;;;;;;;;;;12.13;55.69;99218.44;4953376;27;101929;-64
2023/11/11 08:58:08;;;;;;;;;;;;;;;12.14;55.66;99227.31;4955196;27;127422;-64
2023/11/11 09:00:35;;;;;;;;;;;;;;;12.18;55.54;99222.91;4957182;27;99320;-64
2023/11/11 09:03:02;;;;;;;;;;;;;;;12.23;55.73;99223.59;4946628;27;100188;-64
2023/11/11 09:05:27;;;;;;;;;;;;;;;12.29;55.44;99221.53;4943973;27;98349;-64
2023/11/11 09:07:53;;;;;;;;;;;;;;;12.36;55.16;99227.31;4941382;27;122153;-69
2023/11/11 09:10:20;;;;;;;;;;;;;;;12.45;55.53;99220.06;4953369;27;102347;-69
2023/11/11 09:12:46;;;;;;;;;;;;;;;12.59;55.35;99225.38;4955801;27;98779;-69
2023/11/11 09:15:13;;;;;;;;;;;;;;;12.72;54.97;99227.19;4948027;27;99635;-69
2023/11/11 09:17:41;;;;;;;;;;;;;;;12.92;54.87;99223.13;4937307;27;98303;-68
2023/11/11 09:20:09;;;;;;;;;;;;;;;13.18;54.95;99223.22;4941581;27;101649;-68
2023/11/11 09:22:35;;;;;;;;;;;;;;;13.36;54.52;99226.00;4959975;27;98442;-64
2023/11/11 09:25:02;;;;;;;;;;;;;;;13.48;54.42;99229.72;4940946;27;100491;-68
2023/11/11 09:27:28;;;;;;;;;;;;;;;13.53;54.51;99226.03;4945641;27;99865;-69
2023/11/11 09:29:54;;;;;;;;;;;;;;;13.53;54.98;99226.03;4958853;27;98481;-64
2023/11/11 09:32:20;;;;;;;;;;;;;;;13.52;55.09;99224.47;4947971;27;98026;-64
2023/11/11 09:34:47;;;;;;;;;;;;;;;13.53;55.02;99233.38;4960805;27;127578;-69
2023/11/11 09:37:13;;;;;;;;;;;;;;;13.51;55.34;99233.69;4958321;27;104055;-64
2023/11/11 09:39:39;;;;;;;;;;;;;;;13.50;55.02;99229.38;4961394;27;99901;-69
2023/11/11 09:42:07;;;;;;;;;;;;;;;13.53;54.98;99225.25;4945714;27;116798;-64
2023/11/11 09:44:33;;;;;;;;;;;;;;;13.61;55.14;99227.97;4960070;27;98128;-64
2023/11/11 09:46:59;;;;;;;;;;;;;;;13.77;55.16;99231.00;4948320;27;98433;-69
2023/11/11 09:49:27;;;;;;;;;;;;;;;13.94;55.02;99236.41;4956090;27;98055;-64
2023/11/11 09:51:53;;;;;;;;;;;;;;;14.17;54.44;99234.34;4955901;27;99135;-64
2023/11/11 09:54:19;;;;;;;;;;;;;;;14.40;54.35;99234.16;4945629;27;100717;-69
2023/11/11 09:56:45;;;;;;;;;;;;;;;14.72;53.96;99230.91;4939447;27;121295;-64
2023/11/11 09:59:11;;;;;;;;;;;;;;;15.18;53.44;99231.19;4957856;27;99570;-69
2023/11/11 10:01:41;;;;;;;;;;;;;;;15.37;53.62;99231.56;4941593;27;98165;-69
2023/11/11 10:04:08;;;;;;;;;;;;;;;15.51;53.70;99228.59;4961510;27;98410;-64
2023/11/11 10:06:35;;;;;;;;;;;;;;;15.69;53.56;99226.59;4941752;27;98302;-69
2023/11/11 10:09:02;;;;;;;;;;;;;;;15.92;53.51;99227.06;4941291;27;98182;-69
2023/11/11 10:11:28;;;;;;;;;;;;;;;16.01;53.69;99230.50;4974139;27;98300;-64
2023/11/11 10:13:55;;;;;;;;;;;;;;;15.92;53.76;99232.50;4967227;27;98916;-69
2023/11/11 10:16:25;;;;;;;;;;;;;;;15.80;54.06;99232.41;4958842;27;99920;-64
2023/11/11 10:18:58;;;;;;;;;;;;;;;15.68;54.45;99236.66;4947320;27;99035;-69
2023/11/11 10:21:24;;;;;;;;;;;;;;;15.60;54.53;99232.06;4944761;27;98458;-69
2023/11/11 10:23:52;;;;;;;;;;;;;;;15.53;54.59;99241.84;4943403;27;98572;-69
2023/11/11 10:26:20;;;;;;;;;;;;;;;15.46;54.80;99236.94;4962820;27;98081;-64
2023/11/11 10:28:49;;;;;;;;;;;;;;;15.38;54.79;99241.28;4957688;27;98899;-69
2023/11/11 10:31:16;;;;;;;;;;;;;;;15.33;54.93;99238.78;4951067;27;98177;-64
2023/11/11 10:33:45;;;;;;;;;;;;;;;15.31;54.95;99234.78;4947600;27;98284;-64
2023/11/11 10:36:11;;;;;;;;;;;;;;;15.30;54.87;99239.44;4944519;27;98216;-70
2023/11/11 10:38:42;;;;;;;;;;;;;;;15.30;54.92;99231.28;4945762;27;98063;-64
2023/11/11 10:41:08;;;;;;;;;;;;;;;15.29;54.91;99240.56;4962696;27;98005;-69
2023/11/11 10:43:34;;;;;;;;;;;;;;;15.25;55.08;99236.91;4952199;27;108585;-64
2023/11/11 10:46:01;;;;;;;;;;;;;;;15.22;54.99;99238.34;4963300;27;98811;-64
2023/11/11 10:48:27;;;;;;;;;;;;;;;15.17;55.24;99243.19;4946539;27;98081;-69
2023/11/11 10:50:53;;;;;;;;;;;;;;;15.12;55.34;99255.00;4958074;27;116996;-64
2023/11/11 10:53:20;;;;;;;;;;;;;;;15.12;55.21;99246.06;4993048;27;98156;-70
2023/11/11 10:55:49;;;;;;;;;;;;;;;15.14;55.04;99249.25;4960569;27;98502;-64
2023/11/11 10:58:19;;;;;;;;;;;;;;;15.14;55.28;99241.13;4957690;27;98483;-69
2023/11/11 11:00:48;;;;;;;;;;;;;;;15.12;55.13;99248.78;4948118;27;98108;-65
2023/11/11 11:03:16;;;;;;;;;;;;;;;15.12;55.19;99246.06;4974056;27;99452;-69
2023/11/11 11:05:56;;;;;;;;;;;;;;;15.11;55.13;99245.25;4956465;27;99804;-64
2023/11/11 11:08:24;;;;;;;;;;;;;;;15.15;55.21;99245.41;4962581;27;98521;-69
2023/11/11 11:11:15;;;;;;;;;;;;;;;15.17;55.03;99245.91;4958389;27;99336;-64
2023/11/11 11:13:43;;;;;;;;;;;;;;;15.18;55.05;99244.75;4960479;27;109768;-64
2023/11/11 11:16:16;;;;;;;;;;;;;;;15.18;55.25;99242.84;4942291;27;99097;-70
2023/11/11 11:18:43;;;;;;;;;;;;;;;15.19;55.31;99249.84;4939775;27;99886;-64
2023/11/11 11:21:11;;;;;;;;;;;;;;;15.22;55.26;99246.50;4955388;27;98223;-65
2023/11/11 11:23:39;;;;;;;;;;;;;;;15.24;55.25;99254.28;4942638;27;100013;-65
2023/11/11 11:26:05;;;;;;;;;;;;;;;15.26;55.28;99251.28;4972323;27;98913;-64
2023/11/11 11:28:31;;;;;;;;;;;;;;;15.27;55.23;99252.84;4953212;27;98956;-70
2023/11/11 11:30:59;;;;;;;;;;;;;;;15.28;55.06;99249.81;4937557;27;97921;-70
2023/11/11 11:33:26;;;;;;;;;;;;;;;15.29;55.19;99237.84;4942539;27;99494;-64
2023/11/11 11:35:58;;;;;;;;;;;;;;;15.28;55.23;99238.94;4960376;27;98237;-64
2023/11/11 11:38:27;;;;;;;;;;;;;;;15.30;55.13;99241.34;4965046;27;99093;-70
2023/11/11 11:40:58;;;;;;;;;;;;;;;15.31;55.13;99249.16;4975166;27;98111;-65
2023/11/11 11:43:31;;;;;;;;;;;;;;;15.33;55.30;99244.22;4952833;27;98073;-64
2023/11/11 11:46:01;;;;;;;;;;;;;;;15.35;55.29;99252.00;4956244;27;98397;-69
2023/11/11 11:48:27;;;;;;;;;;;;;;;15.33;55.27;99251.56;4970934;27;99467;-69
2023/11/11 11:51:10;;;;;;;;;;;;;;;15.25;55.42;99257.81;4956643;27;98231;-64
2023/11/11 11:53:37;;;;;;;;;;;;;;;15.12;55.54;99265.84;4963031;27;98283;-64
2023/11/11 11:56:05;;;;;;;;;;;;;;;14.99;55.68;99266.88;4971706;27;98579;-64
2023/11/11 11:58:48;;;;;;;;;;;;;;;14.88;55.83;99269.13;4956409;27;98591;-69
2023/11/11 12:01:25;;;;;;;;;;;;;;;14.85;55.57;99267.06;4960535;27;98401;-69
2023/11/11 12:03:51;;;;;;;;;;;;;;;14.84;55.74;99267.41;4956021;27;99205;-64
2023/11/11 12:06:19;;;;;;;;;;;;;;;14.83;55.60;99266.59;4935016;27;98443;-64
2023/11/11 12:08:53;;;;;;;;;;;;;;;14.81;55.68;99270.75;4947543;27;98351;-69
2023/11/11 12:11:26;;;;;;;;;;;;;;;14.77;55.62;99269.81;4947225;27;98102;-64
2023/11/11 12:13:56;;;;;;;;;;;;;;;14.75;55.78;99266.63;4943391;27;98432;-69
2023/11/11 12:16:43;;;;;;;;;;;;;;;14.71;55.62;99269.19;4967091;27;98864;-64
2023/11/11 12:19:10;;;;;;;;;;;;;;;14.64;55.68;99282.44;4955531;27;98839;-69
2023/11/11 12:21:43;;;;;;;;;;;;;;;14.59;56.01;99282.63;4959595;27;98451;-69
2023/11/11 12:24:16;;;;;;;;;;;;;;;14.54;55.87;99275.47;4943868;27;98090;-70
2023/11/11 12:26:42;;;;;;;;;;;;;;;14.48;56.02;99277.50;4955491;27;111180;-64
2023/11/11 12:29:09;;;;;;;;;;;;;;;14.42;55.87;99270.66;4956035;27;98239;-69
2023/11/11 12:31:47;;;;;;;;;;;;;;;14.35;55.85;99289.34;4959426;27;98173;-64
2023/11/11 12:34:17;;;;;;;;;;;;;;;14.27;55.99;99287.44;4981091;27;98311;-69
2023/11/11 12:36:43;;;;;;;;;;;;;;;14.18;56.20;99292.03;4958129;27;98259;-64
2023/11/11 12:39:10;;;;;;;;;;;;;;;14.13;56.43;99292.22;4965795;27;99090;-64
2023/11/11 12:41:39;;;;;;;;;;;;;;;14.05;56.33;99299.22;4955029;27;97905;-70
2023/11/11 12:44:07;;;;;;;;;;;;;;;13.97;56.49;99300.00;4963622;27;99443;-69